sensor_id;sensor_type;location;lat;lon;timestamp;P1;durP1;ratioP1;P2;durP2;ratioP2
67726;SDS011;54525;55.680;37.540;2022-07-12T00:01:05;4.70;;;2.30;;
67726;SDS011;54525;55.680;37.540;2022-07-12T00:03:32;2.85;;;2.08;;
67726;SDS011;54525;55.680;37.540;2022-07-12T00:05:58;3.80;;;1.83;;
67726;SDS011;54525;55.680;37.540;2022-07-12T00:08:24;2.33;;;1.83;;
67726;SDS011;54525;55.680;37.540;2022-07-12T00:10:50;2.55;;;2.03;;
67726;SDS011;54525;55.680;37.540;2022-07-12T00:13:16;5.28;;;2.20;;
67726;SDS011;54525;55.680;37.540;2022-07-12T00:15:42;2.60;;;1.80;;
67726;SDS011;54525;55.680;37.540;2022-07-12T00:18:08;3.30;;;1.90;;
67726;SDS011;54525;55.680;37.540;2022-07-12T00:20:35;2.65;;;2.30;;
67726;SDS011;54525;55.680;37.540;2022-07-12T00:23:01;3.35;;;1.98;;
67726;SDS011;54525;55.680;37.540;2022-07-12T00:25:26;4.03;;;2.17;;
67726;SDS011;54525;55.680;37.540;2022-07-12T00:27:52;4.35;;;2.25;;
67726;SDS011;54525;55.680;37.540;2022-07-12T00:30:17;3.03;;;2.40;;
67726;SDS011;54525;55.680;37.540;2022-07-12T00:32:43;6.88;;;2.40;;
67726;SDS011;54525;55.680;37.540;2022-07-12T00:35:09;3.83;;;1.90;;
67726;SDS011;54525;55.680;37.540;2022-07-12T00:37:35;3.75;;;2.15;;
67726;SDS011;54525;55.680;37.540;2022-07-12T00:40:00;3.00;;;2.03;;
67726;SDS011;54525;55.680;37.540;2022-07-12T00:42:26;9.63;;;2.65;;
67726;SDS011;54525;55.680;37.540;2022-07-12T00:44:52;3.65;;;2.03;;
67726;SDS011;54525;55.680;37.540;2022-07-12T00:48:00;5.95;;;2.90;;
67726;SDS011;54525;55.680;37.540;2022-07-12T00:50:12;5.55;;;2.63;;
67726;SDS011;54525;55.680;37.540;2022-07-12T00:52:41;5.85;;;3.72;;
67726;SDS011;54525;55.680;37.540;2022-07-12T00:55:07;5.15;;;2.75;;
67726;SDS011;54525;55.680;37.540;2022-07-12T00:57:37;5.00;;;2.50;;
67726;SDS011;54525;55.680;37.540;2022-07-12T01:00:05;4.40;;;2.22;;
67726;SDS011;54525;55.680;37.540;2022-07-12T01:02:33;8.52;;;2.25;;
67726;SDS011;54525;55.680;37.540;2022-07-12T01:05:00;5.50;;;2.45;;
67726;SDS011;54525;55.680;37.540;2022-07-12T01:07:27;2.38;;;2.15;;
67726;SDS011;54525;55.680;37.540;2022-07-12T01:09:53;3.67;;;2.47;;
67726;SDS011;54525;55.680;37.540;2022-07-12T01:12:22;3.42;;;2.47;;
67726;SDS011;54525;55.680;37.540;2022-07-12T01:14:50;7.05;;;2.33;;
67726;SDS011;54525;55.680;37.540;2022-07-12T01:17:17;3.28;;;2.60;;
67726;SDS011;54525;55.680;37.540;2022-07-12T01:19:45;3.13;;;2.15;;
67726;SDS011;54525;55.680;37.540;2022-07-12T01:22:11;7.25;;;3.38;;
67726;SDS011;54525;55.680;37.540;2022-07-12T01:24:40;4.45;;;2.70;;
67726;SDS011;54525;55.680;37.540;2022-07-12T01:27:06;4.15;;;2.33;;
67726;SDS011;54525;55.680;37.540;2022-07-12T01:29:32;2.95;;;2.20;;
67726;SDS011;54525;55.680;37.540;2022-07-12T01:32:02;6.82;;;2.50;;
67726;SDS011;54525;55.680;37.540;2022-07-12T01:34:53;3.75;;;2.10;;
67726;SDS011;54525;55.680;37.540;2022-07-12T01:37:20;4.88;;;2.15;;
67726;SDS011;54525;55.680;37.540;2022-07-12T01:39:47;4.75;;;2.53;;
67726;SDS011;54525;55.680;37.540;2022-07-12T01:42:17;5.45;;;2.47;;
67726;SDS011;54525;55.680;37.540;2022-07-12T01:44:43;3.92;;;2.65;;
67726;SDS011;54525;55.680;37.540;2022-07-12T01:47:09;3.67;;;2.20;;
67726;SDS011;54525;55.680;37.540;2022-07-12T01:49:35;6.25;;;3.08;;
67726;SDS011;54525;55.680;37.540;2022-07-12T01:52:00;4.20;;;2.65;;
67726;SDS011;54525;55.680;37.540;2022-07-12T01:54:26;2.83;;;2.35;;
67726;SDS011;54525;55.680;37.540;2022-07-12T01:56:52;10.60;;;2.95;;
67726;SDS011;54525;55.680;37.540;2022-07-12T01:59:18;5.75;;;2.92;;
67726;SDS011;54525;55.680;37.540;2022-07-12T02:01:45;6.18;;;2.80;;
67726;SDS011;54525;55.680;37.540;2022-07-12T02:04:10;4.88;;;2.83;;
67726;SDS011;54525;55.680;37.540;2022-07-12T02:06:36;3.55;;;2.70;;
67726;SDS011;54525;55.680;37.540;2022-07-12T02:09:03;3.50;;;2.70;;
67726;SDS011;54525;55.680;37.540;2022-07-12T02:11:29;4.70;;;2.38;;
67726;SDS011;54525;55.680;37.540;2022-07-12T02:13:55;5.60;;;3.20;;
67726;SDS011;54525;55.680;37.540;2022-07-12T02:16:21;4.82;;;3.13;;
67726;SDS011;54525;55.680;37.540;2022-07-12T02:18:46;5.13;;;2.80;;
67726;SDS011;54525;55.680;37.540;2022-07-12T02:21:12;6.40;;;2.58;;
67726;SDS011;54525;55.680;37.540;2022-07-12T02:23:38;3.50;;;2.67;;
67726;SDS011;54525;55.680;37.540;2022-07-12T02:26:03;4.20;;;2.58;;
67726;SDS011;54525;55.680;37.540;2022-07-12T02:28:29;7.38;;;2.90;;
67726;SDS011;54525;55.680;37.540;2022-07-12T02:30:54;7.20;;;2.95;;
67726;SDS011;54525;55.680;37.540;2022-07-12T02:33:20;4.53;;;2.70;;
67726;SDS011;54525;55.680;37.540;2022-07-12T02:35:45;6.18;;;3.22;;
67726;SDS011;54525;55.680;37.540;2022-07-12T02:38:11;5.85;;;3.38;;
67726;SDS011;54525;55.680;37.540;2022-07-12T02:40:36;11.32;;;3.55;;
67726;SDS011;54525;55.680;37.540;2022-07-12T02:43:27;6.50;;;2.90;;
67726;SDS011;54525;55.680;37.540;2022-07-12T02:45:55;3.60;;;3.00;;
67726;SDS011;54525;55.680;37.540;2022-07-12T02:48:29;5.75;;;2.95;;
67726;SDS011;54525;55.680;37.540;2022-07-12T02:50:55;6.65;;;3.35;;
67726;SDS011;54525;55.680;37.540;2022-07-12T02:53:20;4.30;;;3.08;;
67726;SDS011;54525;55.680;37.540;2022-07-12T02:55:46;3.53;;;2.78;;
67726;SDS011;54525;55.680;37.540;2022-07-12T02:58:11;6.65;;;3.78;;
67726;SDS011;54525;55.680;37.540;2022-07-12T03:00:37;5.63;;;3.30;;
67726;SDS011;54525;55.680;37.540;2022-07-12T03:03:03;4.03;;;2.58;;
67726;SDS011;54525;55.680;37.540;2022-07-12T03:05:29;4.55;;;2.83;;
67726;SDS011;54525;55.680;37.540;2022-07-12T03:07:54;5.57;;;2.70;;
67726;SDS011;54525;55.680;37.540;2022-07-12T03:10:20;4.78;;;3.47;;
67726;SDS011;54525;55.680;37.540;2022-07-12T03:12:45;2.97;;;2.40;;
67726;SDS011;54525;55.680;37.540;2022-07-12T03:15:11;4.80;;;2.78;;
67726;SDS011;54525;55.680;37.540;2022-07-12T03:17:37;4.70;;;2.70;;
67726;SDS011;54525;55.680;37.540;2022-07-12T03:20:03;5.78;;;3.08;;
67726;SDS011;54525;55.680;37.540;2022-07-12T03:22:36;6.18;;;3.05;;
67726;SDS011;54525;55.680;37.540;2022-07-12T03:25:02;3.40;;;2.25;;
67726;SDS011;54525;55.680;37.540;2022-07-12T03:27:28;4.07;;;2.65;;
67726;SDS011;54525;55.680;37.540;2022-07-12T03:29:53;3.28;;;2.70;;
67726;SDS011;54525;55.680;37.540;2022-07-12T03:32:18;5.05;;;3.40;;
67726;SDS011;54525;55.680;37.540;2022-07-12T03:34:44;7.38;;;3.15;;
67726;SDS011;54525;55.680;37.540;2022-07-12T03:37:09;4.80;;;3.42;;
67726;SDS011;54525;55.680;37.540;2022-07-12T03:39:35;4.85;;;2.92;;
67726;SDS011;54525;55.680;37.540;2022-07-12T03:42:00;6.28;;;2.55;;
67726;SDS011;54525;55.680;37.540;2022-07-12T03:44:26;6.22;;;2.80;;
67726;SDS011;54525;55.680;37.540;2022-07-12T03:46:51;6.63;;;3.35;;
67726;SDS011;54525;55.680;37.540;2022-07-12T03:49:17;6.35;;;3.28;;
67726;SDS011;54525;55.680;37.540;2022-07-12T03:51:42;4.88;;;2.88;;
67726;SDS011;54525;55.680;37.540;2022-07-12T03:54:08;6.78;;;3.13;;
67726;SDS011;54525;55.680;37.540;2022-07-12T03:56:34;8.98;;;3.40;;
67726;SDS011;54525;55.680;37.540;2022-07-12T03:59:18;5.35;;;2.95;;
67726;SDS011;54525;55.680;37.540;2022-07-12T04:01:44;7.75;;;3.42;;
67726;SDS011;54525;55.680;37.540;2022-07-12T04:04:09;7.82;;;3.65;;
67726;SDS011;54525;55.680;37.540;2022-07-12T04:06:35;5.30;;;3.80;;
67726;SDS011;54525;55.680;37.540;2022-07-12T04:09:00;8.60;;;3.22;;
67726;SDS011;54525;55.680;37.540;2022-07-12T04:11:26;7.10;;;3.40;;
67726;SDS011;54525;55.680;37.540;2022-07-12T04:13:51;7.05;;;3.70;;
67726;SDS011;54525;55.680;37.540;2022-07-12T04:16:17;7.63;;;3.72;;
67726;SDS011;54525;55.680;37.540;2022-07-12T04:18:42;6.78;;;3.58;;
67726;SDS011;54525;55.680;37.540;2022-07-12T04:21:07;4.45;;;3.30;;
67726;SDS011;54525;55.680;37.540;2022-07-12T04:23:33;7.75;;;3.08;;
67726;SDS011;54525;55.680;37.540;2022-07-12T04:25:58;7.18;;;3.75;;
67726;SDS011;54525;55.680;37.540;2022-07-12T04:28:24;6.28;;;3.65;;
67726;SDS011;54525;55.680;37.540;2022-07-12T04:30:49;8.10;;;3.83;;
67726;SDS011;54525;55.680;37.540;2022-07-12T04:33:15;7.68;;;3.80;;
67726;SDS011;54525;55.680;37.540;2022-07-12T04:35:40;14.35;;;3.88;;
67726;SDS011;54525;55.680;37.540;2022-07-12T04:38:07;7.45;;;4.15;;
67726;SDS011;54525;55.680;37.540;2022-07-12T04:40:32;11.88;;;6.75;;
67726;SDS011;54525;55.680;37.540;2022-07-12T04:42:58;9.55;;;4.10;;
67726;SDS011;54525;55.680;37.540;2022-07-12T04:45:23;9.43;;;4.38;;
67726;SDS011;54525;55.680;37.540;2022-07-12T04:47:49;6.20;;;4.05;;
67726;SDS011;54525;55.680;37.540;2022-07-12T04:50:14;6.68;;;4.32;;
67726;SDS011;54525;55.680;37.540;2022-07-12T04:52:40;14.18;;;4.10;;
67726;SDS011;54525;55.680;37.540;2022-07-12T04:55:05;10.85;;;3.97;;
67726;SDS011;54525;55.680;37.540;2022-07-12T04:57:32;6.05;;;4.10;;
67726;SDS011;54525;55.680;37.540;2022-07-12T04:59:57;7.68;;;4.10;;
67726;SDS011;54525;55.680;37.540;2022-07-12T05:02:23;5.82;;;4.03;;
67726;SDS011;54525;55.680;37.540;2022-07-12T05:04:48;11.85;;;4.60;;
67726;SDS011;54525;55.680;37.540;2022-07-12T05:07:14;10.43;;;4.90;;
67726;SDS011;54525;55.680;37.540;2022-07-12T05:09:39;8.40;;;3.95;;
67726;SDS011;54525;55.680;37.540;2022-07-12T05:12:05;6.75;;;4.47;;
67726;SDS011;54525;55.680;37.540;2022-07-12T05:14:31;8.73;;;3.58;;
67726;SDS011;54525;55.680;37.540;2022-07-12T05:16:57;8.38;;;3.75;;
67726;SDS011;54525;55.680;37.540;2022-07-12T05:19:22;6.15;;;3.80;;
67726;SDS011;54525;55.680;37.540;2022-07-12T05:21:48;7.07;;;4.00;;
67726;SDS011;54525;55.680;37.540;2022-07-12T05:24:14;5.43;;;4.25;;
67726;SDS011;54525;55.680;37.540;2022-07-12T05:26:39;7.63;;;4.10;;
67726;SDS011;54525;55.680;37.540;2022-07-12T05:29:05;11.55;;;4.03;;
67726;SDS011;54525;55.680;37.540;2022-07-12T05:31:30;8.70;;;4.25;;
67726;SDS011;54525;55.680;37.540;2022-07-12T05:33:56;11.48;;;4.20;;
67726;SDS011;54525;55.680;37.540;2022-07-12T05:36:21;4.90;;;3.70;;
67726;SDS011;54525;55.680;37.540;2022-07-12T05:38:47;8.70;;;3.72;;
67726;SDS011;54525;55.680;37.540;2022-07-12T05:41:12;5.07;;;4.00;;
67726;SDS011;54525;55.680;37.540;2022-07-12T05:43:38;12.45;;;4.65;;
67726;SDS011;54525;55.680;37.540;2022-07-12T05:46:03;7.35;;;4.00;;
67726;SDS011;54525;55.680;37.540;2022-07-12T05:48:29;5.22;;;4.28;;
67726;SDS011;54525;55.680;37.540;2022-07-12T05:50:55;6.10;;;4.68;;
67726;SDS011;54525;55.680;37.540;2022-07-12T05:53:40;6.93;;;4.32;;
67726;SDS011;54525;55.680;37.540;2022-07-12T05:56:06;8.15;;;3.50;;
67726;SDS011;54525;55.680;37.540;2022-07-12T05:58:31;14.23;;;4.43;;
67726;SDS011;54525;55.680;37.540;2022-07-12T06:00:57;9.13;;;4.55;;
67726;SDS011;54525;55.680;37.540;2022-07-12T06:03:22;9.65;;;4.05;;
67726;SDS011;54525;55.680;37.540;2022-07-12T06:05:48;8.20;;;3.90;;
67726;SDS011;54525;55.680;37.540;2022-07-12T06:08:13;6.78;;;4.28;;
67726;SDS011;54525;55.680;37.540;2022-07-12T06:10:39;8.80;;;4.43;;
67726;SDS011;54525;55.680;37.540;2022-07-12T06:13:04;7.05;;;4.18;;
67726;SDS011;54525;55.680;37.540;2022-07-12T06:15:30;6.78;;;3.85;;
67726;SDS011;54525;55.680;37.540;2022-07-12T06:17:55;7.68;;;4.05;;
67726;SDS011;54525;55.680;37.540;2022-07-12T06:20:22;5.32;;;4.13;;
67726;SDS011;54525;55.680;37.540;2022-07-12T06:22:47;9.90;;;4.18;;
67726;SDS011;54525;55.680;37.540;2022-07-12T06:25:14;9.23;;;4.18;;
67726;SDS011;54525;55.680;37.540;2022-07-12T06:27:39;7.55;;;4.22;;
67726;SDS011;54525;55.680;37.540;2022-07-12T06:30:05;9.10;;;5.00;;
67726;SDS011;54525;55.680;37.540;2022-07-12T06:32:31;10.52;;;4.57;;
67726;SDS011;54525;55.680;37.540;2022-07-12T06:34:56;7.82;;;4.55;;
67726;SDS011;54525;55.680;37.540;2022-07-12T06:37:22;10.80;;;4.10;;
67726;SDS011;54525;55.680;37.540;2022-07-12T06:39:48;9.32;;;4.38;;
67726;SDS011;54525;55.680;37.540;2022-07-12T06:42:13;10.63;;;4.63;;
67726;SDS011;54525;55.680;37.540;2022-07-12T06:44:38;9.65;;;5.00;;
67726;SDS011;54525;55.680;37.540;2022-07-12T06:47:04;12.35;;;4.88;;
67726;SDS011;54525;55.680;37.540;2022-07-12T06:49:29;6.85;;;3.97;;
67726;SDS011;54525;55.680;37.540;2022-07-12T06:51:55;7.72;;;4.95;;
67726;SDS011;54525;55.680;37.540;2022-07-12T06:54:21;8.05;;;4.70;;
67726;SDS011;54525;55.680;37.540;2022-07-12T06:56:46;9.13;;;4.88;;
67726;SDS011;54525;55.680;37.540;2022-07-12T06:59:12;13.32;;;5.18;;
67726;SDS011;54525;55.680;37.540;2022-07-12T07:01:38;8.68;;;4.32;;
67726;SDS011;54525;55.680;37.540;2022-07-12T07:04:03;8.50;;;4.53;;
67726;SDS011;54525;55.680;37.540;2022-07-12T07:06:29;10.30;;;4.68;;
67726;SDS011;54525;55.680;37.540;2022-07-12T07:08:54;9.52;;;4.63;;
67726;SDS011;54525;55.680;37.540;2022-07-12T07:11:20;5.28;;;4.40;;
67726;SDS011;54525;55.680;37.540;2022-07-12T07:13:46;7.78;;;5.20;;
67726;SDS011;54525;55.680;37.540;2022-07-12T07:16:11;4.38;;;3.53;;
67726;SDS011;54525;55.680;37.540;2022-07-12T07:18:37;5.68;;;4.03;;
67726;SDS011;54525;55.680;37.540;2022-07-12T07:21:02;8.90;;;3.78;;
67726;SDS011;54525;55.680;37.540;2022-07-12T07:23:28;8.70;;;4.05;;
67726;SDS011;54525;55.680;37.540;2022-07-12T07:25:53;12.45;;;3.53;;
67726;SDS011;54525;55.680;37.540;2022-07-12T07:28:19;6.88;;;4.15;;
67726;SDS011;54525;55.680;37.540;2022-07-12T07:30:44;9.73;;;3.60;;
67726;SDS011;54525;55.680;37.540;2022-07-12T07:33:23;9.55;;;4.00;;
67726;SDS011;54525;55.680;37.540;2022-07-12T07:35:50;9.05;;;3.70;;
67726;SDS011;54525;55.680;37.540;2022-07-12T07:38:16;8.48;;;3.70;;
67726;SDS011;54525;55.680;37.540;2022-07-12T07:40:43;9.93;;;3.28;;
67726;SDS011;54525;55.680;37.540;2022-07-12T07:43:08;9.65;;;3.65;;
67726;SDS011;54525;55.680;37.540;2022-07-12T07:45:34;7.15;;;3.53;;
67726;SDS011;54525;55.680;37.540;2022-07-12T07:48:00;10.70;;;3.35;;
67726;SDS011;54525;55.680;37.540;2022-07-12T07:50:26;7.22;;;3.25;;
67726;SDS011;54525;55.680;37.540;2022-07-12T07:52:51;7.60;;;3.20;;
67726;SDS011;54525;55.680;37.540;2022-07-12T07:55:17;7.00;;;3.15;;
67726;SDS011;54525;55.680;37.540;2022-07-12T07:57:43;5.47;;;3.00;;
67726;SDS011;54525;55.680;37.540;2022-07-12T08:00:09;5.63;;;3.33;;
67726;SDS011;54525;55.680;37.540;2022-07-12T08:02:35;6.85;;;2.72;;
67726;SDS011;54525;55.680;37.540;2022-07-12T08:05:01;13.40;;;4.90;;
67726;SDS011;54525;55.680;37.540;2022-07-12T08:07:27;5.97;;;3.30;;
67726;SDS011;54525;55.680;37.540;2022-07-12T08:09:52;6.15;;;2.80;;
67726;SDS011;54525;55.680;37.540;2022-07-12T08:12:18;4.68;;;2.92;;
67726;SDS011;54525;55.680;37.540;2022-07-12T08:14:44;4.38;;;2.63;;
67726;SDS011;54525;55.680;37.540;2022-07-12T08:17:09;5.00;;;2.90;;
67726;SDS011;54525;55.680;37.540;2022-07-12T08:19:35;6.32;;;3.80;;
67726;SDS011;54525;55.680;37.540;2022-07-12T08:22:00;7.72;;;3.55;;
67726;SDS011;54525;55.680;37.540;2022-07-12T08:24:26;7.88;;;3.30;;
67726;SDS011;54525;55.680;37.540;2022-07-12T08:26:51;5.88;;;3.58;;
67726;SDS011;54525;55.680;37.540;2022-07-12T08:29:17;7.43;;;3.42;;
67726;SDS011;54525;55.680;37.540;2022-07-12T08:31:42;9.10;;;3.20;;
67726;SDS011;54525;55.680;37.540;2022-07-12T08:34:07;12.23;;;4.18;;
67726;SDS011;54525;55.680;37.540;2022-07-12T08:36:34;10.57;;;3.88;;
67726;SDS011;54525;55.680;37.540;2022-07-12T08:38:59;13.35;;;4.68;;
67726;SDS011;54525;55.680;37.540;2022-07-12T08:41:25;10.80;;;3.90;;
67726;SDS011;54525;55.680;37.540;2022-07-12T08:43:50;10.43;;;4.13;;
67726;SDS011;54525;55.680;37.540;2022-07-12T08:46:16;6.88;;;3.17;;
67726;SDS011;54525;55.680;37.540;2022-07-12T08:48:42;8.48;;;3.30;;
67726;SDS011;54525;55.680;37.540;2022-07-12T08:51:18;7.45;;;3.25;;
67726;SDS011;54525;55.680;37.540;2022-07-12T08:54:04;10.68;;;3.95;;
67726;SDS011;54525;55.680;37.540;2022-07-12T08:56:41;7.22;;;3.35;;
67726;SDS011;54525;55.680;37.540;2022-07-12T08:59:09;7.03;;;3.08;;
67726;SDS011;54525;55.680;37.540;2022-07-12T09:01:53;10.38;;;3.53;;
67726;SDS011;54525;55.680;37.540;2022-07-12T09:07:12;6.25;;;3.60;;
67726;SDS011;54525;55.680;37.540;2022-07-12T09:09:39;8.23;;;3.63;;
67726;SDS011;54525;55.680;37.540;2022-07-12T09:12:04;8.43;;;3.35;;
67726;SDS011;54525;55.680;37.540;2022-07-12T09:14:30;4.32;;;3.13;;
67726;SDS011;54525;55.680;37.540;2022-07-12T09:17:26;8.77;;;3.08;;
67726;SDS011;54525;55.680;37.540;2022-07-12T09:20:10;6.57;;;3.30;;
67726;SDS011;54525;55.680;37.540;2022-07-12T09:22:54;7.22;;;3.50;;
67726;SDS011;54525;55.680;37.540;2022-07-12T09:25:21;5.78;;;3.20;;
67726;SDS011;54525;55.680;37.540;2022-07-12T09:27:51;7.38;;;2.90;;
67726;SDS011;54525;55.680;37.540;2022-07-12T09:30:22;5.22;;;2.88;;
67726;SDS011;54525;55.680;37.540;2022-07-12T09:33:07;3.97;;;3.20;;
67726;SDS011;54525;55.680;37.540;2022-07-12T09:35:58;7.20;;;3.08;;
67726;SDS011;54525;55.680;37.540;2022-07-12T09:38:32;6.53;;;3.47;;
67726;SDS011;54525;55.680;37.540;2022-07-12T09:41:00;6.60;;;3.10;;
67726;SDS011;54525;55.680;37.540;2022-07-12T09:43:26;5.22;;;3.13;;
67726;SDS011;54525;55.680;37.540;2022-07-12T09:45:52;6.32;;;3.60;;
67726;SDS011;54525;55.680;37.540;2022-07-12T09:48:18;7.28;;;3.22;;
67726;SDS011;54525;55.680;37.540;2022-07-12T09:50:49;7.47;;;3.28;;
67726;SDS011;54525;55.680;37.540;2022-07-12T09:53:20;7.00;;;3.38;;
67726;SDS011;54525;55.680;37.540;2022-07-12T09:55:50;6.82;;;3.38;;
67726;SDS011;54525;55.680;37.540;2022-07-12T09:58:18;7.03;;;3.40;;
67726;SDS011;54525;55.680;37.540;2022-07-12T10:00:49;10.25;;;3.22;;
67726;SDS011;54525;55.680;37.540;2022-07-12T10:03:17;6.65;;;3.72;;
67726;SDS011;54525;55.680;37.540;2022-07-12T10:05:45;12.02;;;3.40;;
67726;SDS011;54525;55.680;37.540;2022-07-12T10:08:13;5.38;;;3.40;;
67726;SDS011;54525;55.680;37.540;2022-07-12T10:10:39;7.63;;;3.58;;
67726;SDS011;54525;55.680;37.540;2022-07-12T10:13:04;9.65;;;3.20;;
67726;SDS011;54525;55.680;37.540;2022-07-12T10:15:30;5.28;;;3.05;;
67726;SDS011;54525;55.680;37.540;2022-07-12T10:17:57;10.10;;;3.17;;
67726;SDS011;54525;55.680;37.540;2022-07-12T10:20:26;4.55;;;2.72;;
67726;SDS011;54525;55.680;37.540;2022-07-12T10:22:53;5.60;;;2.58;;
67726;SDS011;54525;55.680;37.540;2022-07-12T10:27:51;5.63;;;2.67;;
67726;SDS011;54525;55.680;37.540;2022-07-12T10:30:17;3.70;;;2.05;;
67726;SDS011;54525;55.680;37.540;2022-07-12T10:35:18;4.70;;;1.55;;
67726;SDS011;54525;55.680;37.540;2022-07-12T10:40:34;3.05;;;1.48;;
67726;SDS011;54525;55.680;37.540;2022-07-12T10:45:28;3.90;;;1.20;;
67726;SDS011;54525;55.680;37.540;2022-07-12T10:47:59;4.13;;;1.33;;
67726;SDS011;54525;55.680;37.540;2022-07-12T10:58:32;2.80;;;1.10;;
67726;SDS011;54525;55.680;37.540;2022-07-12T11:03:31;5.10;;;0.82;;
67726;SDS011;54525;55.680;37.540;2022-07-12T11:06:18;1.25;;;0.95;;
67726;SDS011;54525;55.680;37.540;2022-07-12T11:09:30;1.88;;;1.23;;
67726;SDS011;54525;55.680;37.540;2022-07-12T11:11:39;2.75;;;0.90;;
67726;SDS011;54525;55.680;37.540;2022-07-12T11:14:06;4.00;;;1.17;;
67726;SDS011;54525;55.680;37.540;2022-07-12T11:16:32;5.38;;;0.80;;
67726;SDS011;54525;55.680;37.540;2022-07-12T11:18:58;2.63;;;1.02;;
67726;SDS011;54525;55.680;37.540;2022-07-12T11:21:24;2.55;;;0.80;;
67726;SDS011;54525;55.680;37.540;2022-07-12T11:23:50;5.95;;;1.10;;
67726;SDS011;54525;55.680;37.540;2022-07-12T11:29:23;2.33;;;0.95;;
67726;SDS011;54525;55.680;37.540;2022-07-12T11:32:20;2.22;;;1.02;;
67726;SDS011;54525;55.680;37.540;2022-07-12T11:38:02;4.55;;;1.40;;
67726;SDS011;54525;55.680;37.540;2022-07-12T11:40:30;3.15;;;0.98;;
67726;SDS011;54525;55.680;37.540;2022-07-12T11:42:56;6.43;;;1.92;;
67726;SDS011;54525;55.680;37.540;2022-07-12T11:45:24;5.80;;;1.10;;
67726;SDS011;54525;55.680;37.540;2022-07-12T11:47:54;1.00;;;0.90;;
67726;SDS011;54525;55.680;37.540;2022-07-12T11:50:21;1.40;;;0.98;;
67726;SDS011;54525;55.680;37.540;2022-07-12T11:52:47;5.95;;;1.00;;
67726;SDS011;54525;55.680;37.540;2022-07-12T11:55:12;1.85;;;0.90;;
67726;SDS011;54525;55.680;37.540;2022-07-12T11:57:38;7.10;;;1.20;;
67726;SDS011;54525;55.680;37.540;2022-07-12T12:02:41;3.63;;;1.23;;
67726;SDS011;54525;55.680;37.540;2022-07-12T12:05:07;3.20;;;1.10;;
67726;SDS011;54525;55.680;37.540;2022-07-12T12:07:33;2.92;;;1.10;;
67726;SDS011;54525;55.680;37.540;2022-07-12T12:10:31;1.50;;;0.82;;
67726;SDS011;54525;55.680;37.540;2022-07-12T12:12:51;2.13;;;1.00;;
67726;SDS011;54525;55.680;37.540;2022-07-12T12:15:18;3.95;;;0.93;;
67726;SDS011;54525;55.680;37.540;2022-07-12T12:20:27;4.15;;;1.10;;
67726;SDS011;54525;55.680;37.540;2022-07-12T12:22:53;3.45;;;1.00;;
67726;SDS011;54525;55.680;37.540;2022-07-12T12:25:20;4.97;;;1.05;;
67726;SDS011;54525;55.680;37.540;2022-07-12T12:27:57;4.43;;;1.05;;
67726;SDS011;54525;55.680;37.540;2022-07-12T12:30:25;1.75;;;0.88;;
67726;SDS011;54525;55.680;37.540;2022-07-12T12:32:56;2.63;;;0.82;;
67726;SDS011;54525;55.680;37.540;2022-07-12T12:35:25;2.75;;;0.75;;
67726;SDS011;54525;55.680;37.540;2022-07-12T12:38:01;4.45;;;0.90;;
67726;SDS011;54525;55.680;37.540;2022-07-12T12:40:29;1.05;;;0.85;;
67726;SDS011;54525;55.680;37.540;2022-07-12T12:43:06;4.43;;;0.98;;
67726;SDS011;54525;55.680;37.540;2022-07-12T12:45:33;2.50;;;1.20;;
67726;SDS011;54525;55.680;37.540;2022-07-12T12:48:03;2.67;;;1.10;;
67726;SDS011;54525;55.680;37.540;2022-07-12T12:50:45;5.53;;;1.00;;
67726;SDS011;54525;55.680;37.540;2022-07-12T12:55:44;1.88;;;1.20;;
67726;SDS011;54525;55.680;37.540;2022-07-12T12:58:11;3.17;;;0.95;;
67726;SDS011;54525;55.680;37.540;2022-07-12T13:00:38;4.22;;;1.20;;
67726;SDS011;54525;55.680;37.540;2022-07-12T13:03:05;4.38;;;1.98;;
67726;SDS011;54525;55.680;37.540;2022-07-12T13:05:35;5.70;;;1.60;;
67726;SDS011;54525;55.680;37.540;2022-07-12T13:08:01;2.65;;;1.50;;
67726;SDS011;54525;55.680;37.540;2022-07-12T13:10:30;3.97;;;1.15;;
67726;SDS011;54525;55.680;37.540;2022-07-12T13:12:57;8.60;;;1.55;;
67726;SDS011;54525;55.680;37.540;2022-07-12T13:15:23;4.93;;;1.40;;
67726;SDS011;54525;55.680;37.540;2022-07-12T13:17:49;3.47;;;1.20;;
67726;SDS011;54525;55.680;37.540;2022-07-12T13:20:14;1.75;;;0.90;;
67726;SDS011;54525;55.680;37.540;2022-07-12T13:22:40;1.02;;;0.93;;
67726;SDS011;54525;55.680;37.540;2022-07-12T13:25:07;2.28;;;1.05;;
67726;SDS011;54525;55.680;37.540;2022-07-12T13:27:33;1.50;;;0.85;;
67726;SDS011;54525;55.680;37.540;2022-07-12T13:29:58;2.17;;;0.95;;
67726;SDS011;54525;55.680;37.540;2022-07-12T13:32:24;4.25;;;0.93;;
67726;SDS011;54525;55.680;37.540;2022-07-12T13:34:50;1.10;;;1.00;;
67726;SDS011;54525;55.680;37.540;2022-07-12T13:37:16;3.40;;;0.80;;
67726;SDS011;54525;55.680;37.540;2022-07-12T13:39:42;1.95;;;0.90;;
67726;SDS011;54525;55.680;37.540;2022-07-12T13:42:26;2.00;;;1.00;;
67726;SDS011;54525;55.680;37.540;2022-07-12T13:44:52;2.78;;;1.00;;
67726;SDS011;54525;55.680;37.540;2022-07-12T13:47:19;1.15;;;0.90;;
67726;SDS011;54525;55.680;37.540;2022-07-12T13:49:45;2.13;;;1.00;;
67726;SDS011;54525;55.680;37.540;2022-07-12T13:52:10;2.63;;;0.93;;
67726;SDS011;54525;55.680;37.540;2022-07-12T13:54:36;1.77;;;0.88;;
67726;SDS011;54525;55.680;37.540;2022-07-12T13:57:03;5.13;;;1.40;;
67726;SDS011;54525;55.680;37.540;2022-07-12T13:59:29;1.00;;;0.70;;
67726;SDS011;54525;55.680;37.540;2022-07-12T14:01:54;1.38;;;0.77;;
67726;SDS011;54525;55.680;37.540;2022-07-12T14:04:20;1.60;;;0.90;;
67726;SDS011;54525;55.680;37.540;2022-07-12T14:06:45;4.18;;;1.30;;
67726;SDS011;54525;55.680;37.540;2022-07-12T14:09:12;1.48;;;0.80;;
67726;SDS011;54525;55.680;37.540;2022-07-12T14:11:38;1.92;;;0.82;;
67726;SDS011;54525;55.680;37.540;2022-07-12T14:14:03;2.50;;;1.10;;
67726;SDS011;54525;55.680;37.540;2022-07-12T14:16:28;4.30;;;1.08;;
67726;SDS011;54525;55.680;37.540;2022-07-12T14:18:55;1.60;;;0.98;;
67726;SDS011;54525;55.680;37.540;2022-07-12T14:21:20;2.35;;;1.00;;
67726;SDS011;54525;55.680;37.540;2022-07-12T14:23:49;2.30;;;1.08;;
67726;SDS011;54525;55.680;37.540;2022-07-12T14:26:14;1.10;;;0.85;;
67726;SDS011;54525;55.680;37.540;2022-07-12T14:28:39;4.22;;;1.20;;
67726;SDS011;54525;55.680;37.540;2022-07-12T14:31:05;1.00;;;0.88;;
67726;SDS011;54525;55.680;37.540;2022-07-12T14:33:30;3.55;;;1.45;;
67726;SDS011;54525;55.680;37.540;2022-07-12T14:35:56;4.22;;;0.85;;
67726;SDS011;54525;55.680;37.540;2022-07-12T14:38:22;2.15;;;0.98;;
67726;SDS011;54525;55.680;37.540;2022-07-12T14:40:48;2.20;;;1.20;;
67726;SDS011;54525;55.680;37.540;2022-07-12T14:43:14;3.65;;;1.00;;
67726;SDS011;54525;55.680;37.540;2022-07-12T14:45:41;1.75;;;0.82;;
67726;SDS011;54525;55.680;37.540;2022-07-12T14:48:08;3.15;;;1.02;;
67726;SDS011;54525;55.680;37.540;2022-07-12T14:50:33;1.80;;;1.30;;
67726;SDS011;54525;55.680;37.540;2022-07-12T14:52:59;2.70;;;1.00;;
67726;SDS011;54525;55.680;37.540;2022-07-12T14:55:24;1.40;;;0.90;;
67726;SDS011;54525;55.680;37.540;2022-07-12T14:57:50;3.80;;;1.08;;
67726;SDS011;54525;55.680;37.540;2022-07-12T15:00:15;4.53;;;1.17;;
67726;SDS011;54525;55.680;37.540;2022-07-12T15:02:41;1.98;;;1.02;;
67726;SDS011;54525;55.680;37.540;2022-07-12T15:05:06;2.17;;;1.15;;
67726;SDS011;54525;55.680;37.540;2022-07-12T15:07:33;1.45;;;1.05;;
67726;SDS011;54525;55.680;37.540;2022-07-12T15:09:58;3.40;;;1.10;;
67726;SDS011;54525;55.680;37.540;2022-07-12T15:12:24;1.38;;;1.20;;